sensor_id;sensor_type;location;lat;lon;timestamp;temperature;humidity
43627;DHT22;29217;52.586;13.442;2022-12-05T00:03:55;2.80;99.90
43627;DHT22;29217;52.586;13.442;2022-12-05T00:06:22;2.80;99.90
43627;DHT22;29217;52.586;13.442;2022-12-05T00:08:48;2.80;99.90
43627;DHT22;29217;52.586;13.442;2022-12-05T00:11:16;2.80;99.90
43627;DHT22;29217;52.586;13.442;2022-12-05T00:13:43;2.80;99.90
43627;DHT22;29217;52.586;13.442;2022-12-05T00:16:11;2.90;99.90
43627;DHT22;29217;52.586;13.442;2022-12-05T00:18:37;2.90;99.90
43627;DHT22;29217;52.586;13.442;2022-12-05T00:21:03;2.80;99.90
43627;DHT22;29217;52.586;13.442;2022-12-05T00:23:28;2.90;99.90
43627;DHT22;29217;52.586;13.442;2022-12-05T00:25:54;2.90;99.90
43627;DHT22;29217;52.586;13.442;2022-12-05T00:28:19;2.90;99.90
43627;DHT22;29217;52.586;13.442;2022-12-05T00:30:45;2.90;99.90
43627;DHT22;29217;52.586;13.442;2022-12-05T00:33:11;2.90;99.90
43627;DHT22;29217;52.586;13.442;2022-12-05T00:35:36;2.90;99.90
43627;DHT22;29217;52.586;13.442;2022-12-05T00:38:02;2.90;99.90
43627;DHT22;29217;52.586;13.442;2022-12-05T00:40:27;2.90;99.90
43627;DHT22;29217;52.586;13.442;2022-12-05T00:42:53;2.90;99.90
43627;DHT22;29217;52.586;13.442;2022-12-05T00:45:18;2.90;99.90
43627;DHT22;29217;52.586;13.442;2022-12-05T00:47:44;2.90;99.90
43627;DHT22;29217;52.586;13.442;2022-12-05T00:50:10;2.90;99.90
43627;DHT22;29217;52.586;13.442;2022-12-05T00:52:35;2.90;99.90
43627;DHT22;29217;52.586;13.442;2022-12-05T00:55:01;2.90;99.90
43627;DHT22;29217;52.586;13.442;2022-12-05T00:57:26;2.90;99.90
43627;DHT22;29217;52.586;13.442;2022-12-05T00:59:52;2.90;99.90
43627;DHT22;29217;52.586;13.442;2022-12-05T01:02:17;2.90;99.90
43627;DHT22;29217;52.586;13.442;2022-12-05T01:04:43;2.90;99.90
43627;DHT22;29217;52.586;13.442;2022-12-05T01:07:09;2.90;99.90
43627;DHT22;29217;52.586;13.442;2022-12-05T01:09:34;2.90;99.90
43627;DHT22;29217;52.586;13.442;2022-12-05T01:12:00;2.90;99.90
43627;DHT22;29217;52.586;13.442;2022-12-05T01:14:26;2.90;99.90
43627;DHT22;29217;52.586;13.442;2022-12-05T01:16:53;2.90;99.90
43627;DHT22;29217;52.586;13.442;2022-12-05T01:19:24;2.90;99.90
43627;DHT22;29217;52.586;13.442;2022-12-05T01:21:51;2.90;99.90
43627;DHT22;29217;52.586;13.442;2022-12-05T01:24:18;3.00;99.90
43627;DHT22;29217;52.586;13.442;2022-12-05T01:26:44;3.00;99.90
43627;DHT22;29217;52.586;13.442;2022-12-05T01:29:15;2.90;99.90
43627;DHT22;29217;52.586;13.442;2022-12-05T01:31:41;3.00;99.90
43627;DHT22;29217;52.586;13.442;2022-12-05T01:34:10;3.00;99.90
43627;DHT22;29217;52.586;13.442;2022-12-05T01:36:36;3.00;99.90
43627;DHT22;29217;52.586;13.442;2022-12-05T01:39:04;3.00;99.90
43627;DHT22;29217;52.586;13.442;2022-12-05T01:41:33;3.00;99.90
43627;DHT22;29217;52.586;13.442;2022-12-05T01:44:05;3.00;99.90
43627;DHT22;29217;52.586;13.442;2022-12-05T01:46:42;3.00;99.90
43627;DHT22;29217;52.586;13.442;2022-12-05T01:49:18;3.00;99.90
43627;DHT22;29217;52.586;13.442;2022-12-05T01:51:48;3.00;99.90
43627;DHT22;29217;52.586;13.442;2022-12-05T01:54:15;3.00;99.90
43627;DHT22;29217;52.586;13.442;2022-12-05T01:56:45;3.00;99.90
43627;DHT22;29217;52.586;13.442;2022-12-05T01:59:13;2.90;99.90
43627;DHT22;29217;52.586;13.442;2022-12-05T02:01:39;3.00;99.90
43627;DHT22;29217;52.586;13.442;2022-12-05T02:04:05;3.00;99.90
43627;DHT22;29217;52.586;13.442;2022-12-05T02:06:31;3.00;99.90
43627;DHT22;29217;52.586;13.442;2022-12-05T02:08:57;3.00;99.90
43627;DHT22;29217;52.586;13.442;2022-12-05T02:11:25;3.00;99.90
43627;DHT22;29217;52.586;13.442;2022-12-05T02:28:10;3.00;99.90
43627;DHT22;29217;52.586;13.442;2022-12-05T02:30:43;3.00;99.90
43627;DHT22;29217;52.586;13.442;2022-12-05T02:33:18;3.00;99.90
43627;DHT22;29217;52.586;13.442;2022-12-05T02:35:48;3.00;99.90
43627;DHT22;29217;52.586;13.442;2022-12-05T02:46:24;3.00;99.90
43627;DHT22;29217;52.586;13.442;2022-12-05T02:48:58;3.00;99.90
43627;DHT22;29217;52.586;13.442;2022-12-05T02:51:28;3.00;99.90
43627;DHT22;29217;52.586;13.442;2022-12-05T02:53:57;3.00;99.90
43627;DHT22;29217;52.586;13.442;2022-12-05T02:56:24;3.00;99.90
43627;DHT22;29217;52.586;13.442;2022-12-05T02:58:53;3.00;99.90
43627;DHT22;29217;52.586;13.442;2022-12-05T03:01:22;3.00;99.90
43627;DHT22;29217;52.586;13.442;2022-12-05T03:03:48;3.10;99.90
43627;DHT22;29217;52.586;13.442;2022-12-05T03:06:58;3.00;99.90
43627;DHT22;29217;52.586;13.442;2022-12-05T03:09:11;3.00;99.90
43627;DHT22;29217;52.586;13.442;2022-12-05T03:11:44;3.00;99.90
43627;DHT22;29217;52.586;13.442;2022-12-05T03:14:17;3.00;99.90
43627;DHT22;29217;52.586;13.442;2022-12-05T03:16:51;3.00;99.90
43627;DHT22;29217;52.586;13.442;2022-12-05T03:19:36;3.00;99.90
43627;DHT22;29217;52.586;13.442;2022-12-05T03:23:10;3.00;99.90
43627;DHT22;29217;52.586;13.442;2022-12-05T03:25:04;3.00;99.90
43627;DHT22;29217;52.586;13.442;2022-12-05T03:30:18;3.00;99.90
43627;DHT22;29217;52.586;13.442;2022-12-05T03:32:53;3.00;99.90
43627;DHT22;29217;52.586;13.442;2022-12-05T03:35:34;3.00;99.90
43627;DHT22;29217;52.586;13.442;2022-12-05T03:38:06;3.00;99.90
43627;DHT22;29217;52.586;13.442;2022-12-05T03:40:35;3.00;99.90
43627;DHT22;29217;52.586;13.442;2022-12-05T03:46:17;3.00;99.90
43627;DHT22;29217;52.586;13.442;2022-12-05T03:51:21;3.00;99.90
43627;DHT22;29217;52.586;13.442;2022-12-05T03:53:57;3.00;99.90
43627;DHT22;29217;52.586;13.442;2022-12-05T03:56:30;3.00;99.90
43627;DHT22;29217;52.586;13.442;2022-12-05T03:59:33;3.00;99.90
43627;DHT22;29217;52.586;13.442;2022-12-05T04:02:22;3.00;99.90
43627;DHT22;29217;52.586;13.442;2022-12-05T04:04:53;2.90;99.90
43627;DHT22;29217;52.586;13.442;2022-12-05T04:07:21;2.90;99.90
43627;DHT22;29217;52.586;13.442;2022-12-05T04:09:59;3.00;99.90
43627;DHT22;29217;52.586;13.442;2022-12-05T04:12:29;3.00;99.90
43627;DHT22;29217;52.586;13.442;2022-12-05T04:14:59;3.00;99.90
43627;DHT22;29217;52.586;13.442;2022-12-05T04:17:46;3.00;99.90
43627;DHT22;29217;52.586;13.442;2022-12-05T04:20:23;3.00;99.90
43627;DHT22;29217;52.586;13.442;2022-12-05T04:23:10;2.90;99.90
43627;DHT22;29217;52.586;13.442;2022-12-05T04:25:44;2.90;99.90
43627;DHT22;29217;52.586;13.442;2022-12-05T04:28:37;3.00;99.90
43627;DHT22;29217;52.586;13.442;2022-12-05T04:31:20;3.00;99.90
43627;DHT22;29217;52.586;13.442;2022-12-05T04:34:03;2.90;99.90
43627;DHT22;29217;52.586;13.442;2022-12-05T04:36:44;2.90;99.90
43627;DHT22;29217;52.586;13.442;2022-12-05T04:39:24;3.00;99.90
43627;DHT22;29217;52.586;13.442;2022-12-05T04:42:02;2.90;99.90
43627;DHT22;29217;52.586;13.442;2022-12-05T04:44:34;3.00;99.90
43627;DHT22;29217;52.586;13.442;2022-12-05T04:47:03;2.90;99.90
43627;DHT22;29217;52.586;13.442;2022-12-05T04:49:31;3.00;99.90
43627;DHT22;29217;52.586;13.442;2022-12-05T04:52:01;3.00;99.90
43627;DHT22;29217;52.586;13.442;2022-12-05T04:54:33;3.00;99.90
43627;DHT22;29217;52.586;13.442;2022-12-05T04:57:10;3.00;99.90
43627;DHT22;29217;52.586;13.442;2022-12-05T04:59:37;3.00;99.90
43627;DHT22;29217;52.586;13.442;2022-12-05T05:02:08;3.00;99.90
43627;DHT22;29217;52.586;13.442;2022-12-05T05:04:37;3.00;99.90
43627;DHT22;29217;52.586;13.442;2022-12-05T05:07:06;3.00;99.90
43627;DHT22;29217;52.586;13.442;2022-12-05T05:09:32;3.00;99.90
43627;DHT22;29217;52.586;13.442;2022-12-05T05:11:58;3.00;99.90
43627;DHT22;29217;52.586;13.442;2022-12-05T05:14:24;2.90;99.90
43627;DHT22;29217;52.586;13.442;2022-12-05T05:16:49;2.90;99.90
43627;DHT22;29217;52.586;13.442;2022-12-05T05:19:15;2.90;99.90
43627;DHT22;29217;52.586;13.442;2022-12-05T05:21:41;2.90;99.90
43627;DHT22;29217;52.586;13.442;2022-12-05T05:24:09;2.90;99.90
43627;DHT22;29217;52.586;13.442;2022-12-05T05:26:38;3.00;99.90
43627;DHT22;29217;52.586;13.442;2022-12-05T05:29:04;3.00;99.90
43627;DHT22;29217;52.586;13.442;2022-12-05T05:31:29;3.00;99.90
43627;DHT22;29217;52.586;13.442;2022-12-05T05:33:56;3.00;99.90
43627;DHT22;29217;52.586;13.442;2022-12-05T05:36:23;3.00;99.90
43627;DHT22;29217;52.586;13.442;2022-12-05T05:38:51;3.00;99.90
43627;DHT22;29217;52.586;13.442;2022-12-05T05:41:20;3.00;99.90
43627;DHT22;29217;52.586;13.442;2022-12-05T05:43:47;3.00;99.90
43627;DHT22;29217;52.586;13.442;2022-12-05T05:46:15;3.00;99.90
43627;DHT22;29217;52.586;13.442;2022-12-05T05:48:40;3.00;99.90
43627;DHT22;29217;52.586;13.442;2022-12-05T05:51:08;3.00;99.90
43627;DHT22;29217;52.586;13.442;2022-12-05T05:53:34;3.00;99.90
43627;DHT22;29217;52.586;13.442;2022-12-05T05:56:04;3.00;99.90
43627;DHT22;29217;52.586;13.442;2022-12-05T05:58:30;3.00;99.90
43627;DHT22;29217;52.586;13.442;2022-12-05T06:03:29;3.00;99.90
43627;DHT22;29217;52.586;13.442;2022-12-05T06:05:59;3.00;99.90
43627;DHT22;29217;52.586;13.442;2022-12-05T06:08:24;3.00;99.90
43627;DHT22;29217;52.586;13.442;2022-12-05T06:10:50;3.00;99.90
43627;DHT22;29217;52.586;13.442;2022-12-05T06:13:15;3.00;99.90
43627;DHT22;29217;52.586;13.442;2022-12-05T06:15:41;3.00;99.90
43627;DHT22;29217;52.586;13.442;2022-12-05T06:18:07;3.00;99.90
43627;DHT22;29217;52.586;13.442;2022-12-05T06:20:32;3.00;99.90
43627;DHT22;29217;52.586;13.442;2022-12-05T06:22:58;3.00;99.90
43627;DHT22;29217;52.586;13.442;2022-12-05T06:25:23;3.00;99.90
43627;DHT22;29217;52.586;13.442;2022-12-05T06:27:49;3.00;99.90
43627;DHT22;29217;52.586;13.442;2022-12-05T06:30:15;3.00;99.90
43627;DHT22;29217;52.586;13.442;2022-12-05T06:32:40;3.00;99.90
43627;DHT22;29217;52.586;13.442;2022-12-05T06:35:06;3.00;99.90
43627;DHT22;29217;52.586;13.442;2022-12-05T06:37:40;3.00;99.90
43627;DHT22;29217;52.586;13.442;2022-12-05T06:40:06;3.00;99.90
43627;DHT22;29217;52.586;13.442;2022-12-05T06:42:31;3.00;99.90
43627;DHT22;29217;52.586;13.442;2022-12-05T06:44:57;3.00;99.90
43627;DHT22;29217;52.586;13.442;2022-12-05T06:47:23;3.00;99.90
43627;DHT22;29217;52.586;13.442;2022-12-05T06:49:48;3.00;99.90
43627;DHT22;29217;52.586;13.442;2022-12-05T06:52:14;3.00;99.90
43627;DHT22;29217;52.586;13.442;2022-12-05T06:54:39;3.00;99.90
43627;DHT22;29217;52.586;13.442;2022-12-05T06:57:05;3.00;99.90
43627;DHT22;29217;52.586;13.442;2022-12-05T06:59:30;3.00;99.90
43627;DHT22;29217;52.586;13.442;2022-12-05T07:01:56;3.10;99.90
43627;DHT22;29217;52.586;13.442;2022-12-05T07:04:22;3.10;99.90
43627;DHT22;29217;52.586;13.442;2022-12-05T07:06:49;3.00;99.90
43627;DHT22;29217;52.586;13.442;2022-12-05T07:09:16;3.00;99.90
43627;DHT22;29217;52.586;13.442;2022-12-05T07:11:48;3.00;99.90
43627;DHT22;29217;52.586;13.442;2022-12-05T07:14:14;3.10;99.90
43627;DHT22;29217;52.586;13.442;2022-12-05T07:16:40;3.00;99.90
43627;DHT22;29217;52.586;13.442;2022-12-05T07:19:06;3.10;99.90
43627;DHT22;29217;52.586;13.442;2022-12-05T07:21:32;3.10;99.90
43627;DHT22;29217;52.586;13.442;2022-12-05T07:23:57;3.10;99.90
43627;DHT22;29217;52.586;13.442;2022-12-05T07:26:23;3.10;99.90
43627;DHT22;29217;52.586;13.442;2022-12-05T07:28:50;3.10;99.90
43627;DHT22;29217;52.586;13.442;2022-12-05T07:31:20;3.10;99.90
43627;DHT22;29217;52.586;13.442;2022-12-05T07:33:47;3.00;99.90
43627;DHT22;29217;52.586;13.442;2022-12-05T07:36:15;3.00;99.90
43627;DHT22;29217;52.586;13.442;2022-12-05T07:38:42;3.10;99.90
43627;DHT22;29217;52.586;13.442;2022-12-05T07:41:13;3.00;99.90
43627;DHT22;29217;52.586;13.442;2022-12-05T07:43:39;3.10;99.90
43627;DHT22;29217;52.586;13.442;2022-12-05T07:46:06;3.00;99.90
43627;DHT22;29217;52.586;13.442;2022-12-05T07:48:32;3.00;99.90
43627;DHT22;29217;52.586;13.442;2022-12-05T07:51:07;3.00;99.90
43627;DHT22;29217;52.586;13.442;2022-12-05T07:53:34;3.10;99.90
43627;DHT22;29217;52.586;13.442;2022-12-05T07:56:01;3.10;99.90
43627;DHT22;29217;52.586;13.442;2022-12-05T07:58:28;3.10;99.90
43627;DHT22;29217;52.586;13.442;2022-12-05T08:00:54;3.10;99.90
43627;DHT22;29217;52.586;13.442;2022-12-05T08:03:19;3.10;99.90
43627;DHT22;29217;52.586;13.442;2022-12-05T08:05:45;3.10;99.90
43627;DHT22;29217;52.586;13.442;2022-12-05T08:08:10;3.20;99.90
43627;DHT22;29217;52.586;13.442;2022-12-05T08:10:36;3.20;99.90
43627;DHT22;29217;52.586;13.442;2022-12-05T08:13:01;3.20;99.90
43627;DHT22;29217;52.586;13.442;2022-12-05T08:15:27;3.20;99.90
43627;DHT22;29217;52.586;13.442;2022-12-05T08:17:53;3.20;99.90
43627;DHT22;29217;52.586;13.442;2022-12-05T08:20:18;3.20;99.90
43627;DHT22;29217;52.586;13.442;2022-12-05T08:22:44;3.20;99.90
43627;DHT22;29217;52.586;13.442;2022-12-05T08:25:10;3.20;99.90
43627;DHT22;29217;52.586;13.442;2022-12-05T08:27:35;3.20;99.90
43627;DHT22;29217;52.586;13.442;2022-12-05T08:30:01;3.20;99.90
43627;DHT22;29217;52.586;13.442;2022-12-05T08:32:26;3.20;99.90
43627;DHT22;29217;52.586;13.442;2022-12-05T08:34:52;3.20;99.90
43627;DHT22;29217;52.586;13.442;2022-12-05T08:37:18;3.20;99.90
43627;DHT22;29217;52.586;13.442;2022-12-05T08:39:43;3.20;99.90
43627;DHT22;29217;52.586;13.442;2022-12-05T08:42:09;3.20;99.90
43627;DHT22;29217;52.586;13.442;2022-12-05T08:44:35;3.20;99.90
43627;DHT22;29217;52.586;13.442;2022-12-05T08:47:00;3.20;99.90
43627;DHT22;29217;52.586;13.442;2022-12-05T08:49:26;3.20;99.90
43627;DHT22;29217;52.586;13.442;2022-12-05T08:51:52;3.20;99.90
43627;DHT22;29217;52.586;13.442;2022-12-05T08:54:18;3.20;99.90
43627;DHT22;29217;52.586;13.442;2022-12-05T08:56:43;3.30;99.90
43627;DHT22;29217;52.586;13.442;2022-12-05T08:59:09;3.30;99.90
43627;DHT22;29217;52.586;13.442;2022-12-05T09:01:35;3.20;99.90
43627;DHT22;29217;52.586;13.442;2022-12-05T09:04:04;3.20;99.90
43627;DHT22;29217;52.586;13.442;2022-12-05T09:06:31;3.30;99.90
43627;DHT22;29217;52.586;13.442;2022-12-05T09:08:58;3.30;99.90
43627;DHT22;29217;52.586;13.442;2022-12-05T09:11:27;3.30;99.90
43627;DHT22;29217;52.586;13.442;2022-12-05T09:13:54;3.40;99.90
43627;DHT22;29217;52.586;13.442;2022-12-05T09:16:23;3.40;99.90
43627;DHT22;29217;52.586;13.442;2022-12-05T09:18:49;3.30;99.90
43627;DHT22;29217;52.586;13.442;2022-12-05T09:21:18;3.40;99.90
43627;DHT22;29217;52.586;13.442;2022-12-05T09:23:44;3.30;99.90
43627;DHT22;29217;52.586;13.442;2022-12-05T09:26:13;3.40;99.90
43627;DHT22;29217;52.586;13.442;2022-12-05T09:28:41;3.30;99.90
43627;DHT22;29217;52.586;13.442;2022-12-05T09:31:13;3.30;99.90
43627;DHT22;29217;52.586;13.442;2022-12-05T09:33:39;3.30;99.90
43627;DHT22;29217;52.586;13.442;2022-12-05T09:36:15;3.30;99.90
43627;DHT22;29217;52.586;13.442;2022-12-05T09:38:41;3.30;99.90
43627;DHT22;29217;52.586;13.442;2022-12-05T09:41:47;3.30;99.90
43627;DHT22;29217;52.586;13.442;2022-12-05T09:48:12;3.30;99.90
43627;DHT22;29217;52.586;13.442;2022-12-05T09:50:48;3.40;99.90
43627;DHT22;29217;52.586;13.442;2022-12-05T10:06:54;3.30;99.90
43627;DHT22;29217;52.586;13.442;2022-12-05T10:12:12;3.30;99.90
43627;DHT22;29217;52.586;13.442;2022-12-05T10:14:52;3.40;99.90
43627;DHT22;29217;52.586;13.442;2022-12-05T10:19:56;3.40;99.90
43627;DHT22;29217;52.586;13.442;2022-12-05T10:22:46;3.40;99.90
43627;DHT22;29217;52.586;13.442;2022-12-05T10:25:18;3.40;99.90
43627;DHT22;29217;52.586;13.442;2022-12-05T10:27:51;3.40;99.90
43627;DHT22;29217;52.586;13.442;2022-12-05T10:30:20;3.50;99.90
43627;DHT22;29217;52.586;13.442;2022-12-05T10:32:57;3.40;99.90
43627;DHT22;29217;52.586;13.442;2022-12-05T10:35:26;3.50;99.90
43627;DHT22;29217;52.586;13.442;2022-12-05T10:37:55;3.50;99.90
43627;DHT22;29217;52.586;13.442;2022-12-05T10:40:21;3.50;99.90
43627;DHT22;29217;52.586;13.442;2022-12-05T10:42:48;3.50;99.90
43627;DHT22;29217;52.586;13.442;2022-12-05T10:45:20;3.50;99.90
43627;DHT22;29217;52.586;13.442;2022-12-05T10:47:47;3.50;99.90
43627;DHT22;29217;52.586;13.442;2022-12-05T10:52:55;3.60;99.90
43627;DHT22;29217;52.586;13.442;2022-12-05T10:55:21;3.50;99.90
43627;DHT22;29217;52.586;13.442;2022-12-05T10:57:50;3.50;99.90
43627;DHT22;29217;52.586;13.442;2022-12-05T11:00:21;3.50;99.90
43627;DHT22;29217;52.586;13.442;2022-12-05T11:02:47;3.60;99.90
43627;DHT22;29217;52.586;13.442;2022-12-05T11:05:14;3.60;99.90
43627;DHT22;29217;52.586;13.442;2022-12-05T11:10:31;3.60;99.90
43627;DHT22;29217;52.586;13.442;2022-12-05T11:12:58;3.60;99.90
43627;DHT22;29217;52.586;13.442;2022-12-05T11:15:27;3.70;99.90
43627;DHT22;29217;52.586;13.442;2022-12-05T11:17:55;3.70;99.90
43627;DHT22;29217;52.586;13.442;2022-12-05T11:22:48;3.70;99.90
43627;DHT22;29217;52.586;13.442;2022-12-05T11:25:34;3.70;99.90
43627;DHT22;29217;52.586;13.442;2022-12-05T11:30:58;3.70;99.90
43627;DHT22;29217;52.586;13.442;2022-12-05T11:33:26;3.80;99.90
43627;DHT22;29217;52.586;13.442;2022-12-05T11:35:53;3.80;99.90
43627;DHT22;29217;52.586;13.442;2022-12-05T11:38:23;3.80;99.90
43627;DHT22;29217;52.586;13.442;2022-12-05T11:41:27;3.90;99.90
43627;DHT22;29217;52.586;13.442;2022-12-05T11:54:41;4.00;99.90
43627;DHT22;29217;52.586;13.442;2022-12-05T12:19:05;4.10;99.90
43627;DHT22;29217;52.586;13.442;2022-12-05T12:24:26;4.10;99.90
43627;DHT22;29217;52.586;13.442;2022-12-05T12:29:40;4.00;99.90
43627;DHT22;29217;52.586;13.442;2022-12-05T12:40:49;4.10;99.90
43627;DHT22;29217;52.586;13.442;2022-12-05T12:43:38;4.10;99.90
43627;DHT22;29217;52.586;13.442;2022-12-05T12:52:14;4.10;99.90
43627;DHT22;29217;52.586;13.442;2022-12-05T13:00:10;4.10;99.90
43627;DHT22;29217;52.586;13.442;2022-12-05T13:02:44;4.10;99.90
43627;DHT22;29217;52.586;13.442;2022-12-05T13:07:55;4.20;99.90
43627;DHT22;29217;52.586;13.442;2022-12-05T13:10:33;4.10;99.90
43627;DHT22;29217;52.586;13.442;2022-12-05T13:13:02;4.20;99.90
43627;DHT22;29217;52.586;13.442;2022-12-05T13:15:37;4.20;99.90
43627;DHT22;29217;52.586;13.442;2022-12-05T13:18:06;4.10;99.90
43627;DHT22;29217;52.586;13.442;2022-12-05T13:20:36;4.10;99.90
43627;DHT22;29217;52.586;13.442;2022-12-05T13:23:02;4.20;99.90
43627;DHT22;29217;52.586;13.442;2022-12-05T13:25:31;4.20;99.90
43627;DHT22;29217;52.586;13.442;2022-12-05T13:28:02;4.20;99.90
43627;DHT22;29217;52.586;13.442;2022-12-05T13:30:28;4.20;99.90
43627;DHT22;29217;52.586;13.442;2022-12-05T13:33:03;4.20;99.90
43627;DHT22;29217;52.586;13.442;2022-12-05T13:35:35;4.30;99.90
43627;DHT22;29217;52.586;13.442;2022-12-05T13:41:12;4.30;99.90
43627;DHT22;29217;52.586;13.442;2022-12-05T13:43:57;4.30;99.90
43627;DHT22;29217;52.586;13.442;2022-12-05T13:46:31;4.30;99.90
43627;DHT22;29217;52.586;13.442;2022-12-05T13:52:19;4.30;99.90
43627;DHT22;29217;52.586;13.442;2022-12-05T13:55:10;4.30;99.90
43627;DHT22;29217;52.586;13.442;2022-12-05T14:02:53;4.20;99.90
43627;DHT22;29217;52.586;13.442;2022-12-05T14:07:50;4.30;99.90
43627;DHT22;29217;52.586;13.442;2022-12-05T14:15:40;4.30;99.90
43627;DHT22;29217;52.586;13.442;2022-12-05T14:18:17;4.30;99.90
43627;DHT22;29217;52.586;13.442;2022-12-05T14:21:09;4.30;99.90
43627;DHT22;29217;52.586;13.442;2022-12-05T14:37:57;4.40;99.90
43627;DHT22;29217;52.586;13.442;2022-12-05T14:40:34;4.40;99.90
43627;DHT22;29217;52.586;13.442;2022-12-05T14:43:26;4.30;99.90
43627;DHT22;29217;52.586;13.442;2022-12-05T14:50:56;4.30;99.90
43627;DHT22;29217;52.586;13.442;2022-12-05T14:58:44;4.40;99.90
43627;DHT22;29217;52.586;13.442;2022-12-05T15:01:19;4.30;99.90
43627;DHT22;29217;52.586;13.442;2022-12-05T15:06:24;4.40;99.90
43627;DHT22;29217;52.586;13.442;2022-12-05T15:08:54;4.40;99.90
43627;DHT22;29217;52.586;13.442;2022-12-05T15:11:23;4.40;99.90
43627;DHT22;29217;52.586;13.442;2022-12-05T15:16:42;4.40;99.90
43627;DHT22;29217;52.586;13.442;2022-12-05T15:19:41;4.40;99.90
43627;DHT22;29217;52.586;13.442;2022-12-05T15:22:01;4.40;99.90
43627;DHT22;29217;52.586;13.442;2022-12-05T15:24:36;4.40;99.90
43627;DHT22;29217;52.586;13.442;2022-12-05T15:27:04;4.40;99.90
43627;DHT22;29217;52.586;13.442;2022-12-05T15:29:30;4.40;99.90
43627;DHT22;29217;52.586;13.442;2022-12-05T15:31:58;4.40;99.90
43627;DHT22;29217;52.586;13.442;2022-12-05T15:34:45;4.30;99.90
43627;DHT22;29217;52.586;13.442;2022-12-05T15:37:22;4.40;99.90
43627;DHT22;29217;52.586;13.442;2022-12-05T15:40:06;4.40;99.90
43627;DHT22;29217;52.586;13.442;2022-12-05T15:45:20;4.40;99.90
43627;DHT22;29217;52.586;13.442;2022-12-05T15:47:55;4.40;99.90
43627;DHT22;29217;52.586;13.442;2022-12-05T15:50:34;4.40;99.90
43627;DHT22;29217;52.586;13.442;2022-12-05T15:55:38;4.40;99.90
43627;DHT22;29217;52.586;13.442;2022-12-05T16:00:35;4.40;99.90
43627;DHT22;29217;52.586;13.442;2022-12-05T16:03:39;4.40;99.90
43627;DHT22;29217;52.586;13.442;2022-12-05T16:08:44;4.40;99.90
43627;DHT22;29217;52.586;13.442;2022-12-05T16:11:11;4.30;99.90
43627;DHT22;29217;52.586;13.442;2022-12-05T16:14:00;4.30;99.90
43627;DHT22;29217;52.586;13.442;2022-12-05T16:16:30;4.30;99.90
43627;DHT22;29217;52.586;13.442;2022-12-05T16:19:02;4.30;99.90
43627;DHT22;29217;52.586;13.442;2022-12-05T16:21:40;4.30;99.90
43627;DHT22;29217;52.586;13.442;2022-12-05T16:24:17;4.40;99.90
43627;DHT22;29217;52.586;13.442;2022-12-05T16:26:43;4.40;99.90
43627;DHT22;29217;52.586;13.442;2022-12-05T16:29:30;4.40;99.90
43627;DHT22;29217;52.586;13.442;2022-12-05T16:32:02;4.40;99.90
43627;DHT22;29217;52.586;13.442;2022-12-05T16:34:31;4.40;99.90
43627;DHT22;29217;52.586;13.442;2022-12-05T16:36:57;4.50;99.90
43627;DHT22;29217;52.586;13.442;2022-12-05T16:39:24;4.40;99.90
43627;DHT22;29217;52.586;13.442;2022-12-05T16:41:51;4.40;99.90
43627;DHT22;29217;52.586;13.442;2022-12-05T16:46:52;4.40;99.90
43627;DHT22;29217;52.586;13.442;2022-12-05T16:54:26;4.50;99.90
43627;DHT22;29217;52.586;13.442;2022-12-05T16:56:51;4.50;99.90
43627;DHT22;29217;52.586;13.442;2022-12-05T16:59:32;4.50;99.90
43627;DHT22;29217;52.586;13.442;2022-12-05T17:01:58;4.50;99.90
43627;DHT22;29217;52.586;13.442;2022-12-05T17:04:26;4.50;99.90
43627;DHT22;29217;52.586;13.442;2022-12-05T17:06:52;4.50;99.90
43627;DHT22;29217;52.586;13.442;2022-12-05T17:09:18;4.60;99.90
43627;DHT22;29217;52.586;13.442;2022-12-05T17:11:45;4.50;99.90
43627;DHT22;29217;52.586;13.442;2022-12-05T17:14:16;4.50;99.90
43627;DHT22;29217;52.586;13.442;2022-12-05T17:16:42;4.50;99.90
43627;DHT22;29217;52.586;13.442;2022-12-05T17:19:09;4.50;99.90
43627;DHT22;29217;52.586;13.442;2022-12-05T17:21:35;4.50;99.90
43627;DHT22;29217;52.586;13.442;2022-12-05T17:24:01;4.50;99.90
43627;DHT22;29217;52.586;13.442;2022-12-05T17:26:26;4.50;99.90
43627;DHT22;29217;52.586;13.442;2022-12-05T17:28:52;4.50;99.90
43627;DHT22;29217;52.586;13.442;2022-12-05T17:31:21;4.50;99.90
43627;DHT22;29217;52.586;13.442;2022-12-05T17:33:48;4.50;99.90
43627;DHT22;29217;52.586;13.442;2022-12-05T17:36:15;4.60;99.90
43627;DHT22;29217;52.586;13.442;2022-12-05T17:38:41;4.60;99.90
43627;DHT22;29217;52.586;13.442;2022-12-05T17:41:08;4.60;99.90
43627;DHT22;29217;52.586;13.442;2022-12-05T17:43:38;4.60;99.90
43627;DHT22;29217;52.586;13.442;2022-12-05T17:46:04;4.60;99.90
43627;DHT22;29217;52.586;13.442;2022-12-05T17:48:30;4.60;99.90
43627;DHT22;29217;52.586;13.442;2022-12-05T17:50:55;4.70;99.90
43627;DHT22;29217;52.586;13.442;2022-12-05T17:53:22;4.70;99.90
43627;DHT22;29217;52.586;13.442;2022-12-05T17:55:48;4.60;99.90
43627;DHT22;29217;52.586;13.442;2022-12-05T17:58:15;4.70;99.90
43627;DHT22;29217;52.586;13.442;2022-12-05T18:00:42;4.60;99.90
43627;DHT22;29217;52.586;13.442;2022-12-05T18:03:17;4.70;99.90
43627;DHT22;29217;52.586;13.442;2022-12-05T18:05:43;4.70;99.90
43627;DHT22;29217;52.586;13.442;2022-12-05T18:08:10;4.70;99.90
43627;DHT22;29217;52.586;13.442;2022-12-05T18:10:35;4.60;99.90
43627;DHT22;29217;52.586;13.442;2022-12-05T18:13:01;4.70;99.90
43627;DHT22;29217;52.586;13.442;2022-12-05T18:15:27;4.70;99.90
43627;DHT22;29217;52.586;13.442;2022-12-05T18:17:52;4.70;99.90
43627;DHT22;29217;52.586;13.442;2022-12-05T18:20:19;4.70;99.90
43627;DHT22;29217;52.586;13.442;2022-12-05T18:22:45;4.70;99.90
43627;DHT22;29217;52.586;13.442;2022-12-05T18:25:11;4.70;99.90
43627;DHT22;29217;52.586;13.442;2022-12-05T18:27:36;4.70;99.90
43627;DHT22;29217;52.586;13.442;2022-12-05T18:30:04;4.70;99.90
43627;DHT22;29217;52.586;13.442;2022-12-05T18:32:30;4.70;99.90
43627;DHT22;29217;52.586;13.442;2022-12-05T18:34:55;4.70;99.90
43627;DHT22;29217;52.586;13.442;2022-12-05T18:37:23;4.60;99.90
43627;DHT22;29217;52.586;13.442;2022-12-05T18:39:49;4.70;99.90
43627;DHT22;29217;52.586;13.442;2022-12-05T18:42:15;4.70;99.90
43627;DHT22;29217;52.586;13.442;2022-12-05T18:44:41;4.70;99.90
43627;DHT22;29217;52.586;13.442;2022-12-05T18:47:06;4.70;99.90
43627;DHT22;29217;52.586;13.442;2022-12-05T18:49:32;4.70;99.90
43627;DHT22;29217;52.586;13.442;2022-12-05T18:51:58;4.80;99.90
43627;DHT22;29217;52.586;13.442;2022-12-05T18:54:23;4.70;99.90
43627;DHT22;29217;52.586;13.442;2022-12-05T18:56:49;4.70;99.90
43627;DHT22;29217;52.586;13.442;2022-12-05T18:59:19;4.70;99.90
43627;DHT22;29217;52.586;13.442;2022-12-05T19:01:45;4.80;99.90
43627;DHT22;29217;52.586;13.442;2022-12-05T19:04:14;4.70;99.90